createdAt,value
2018-01-29T00:01:10.472Z,15.57
2018-01-29T00:03:38.221Z,13.00
2018-01-29T00:06:05.951Z,13.93
2018-01-29T00:08:34.410Z,13.83
2018-01-29T00:11:02.125Z,14.70
2018-01-29T00:13:29.846Z,15.13
2018-01-29T00:15:57.527Z,14.13
2018-01-29T00:18:26.000Z,13.50
2018-01-29T00:20:54.453Z,13.53
2018-01-29T00:23:22.142Z,13.30
2018-01-29T00:25:50.629Z,13.90
2018-01-29T00:28:19.086Z,12.43
2018-01-29T00:30:47.583Z,14.27
2018-01-29T00:33:16.066Z,13.30
2018-01-29T00:35:44.498Z,13.77
2018-01-29T00:38:12.171Z,13.17
2018-01-29T00:40:39.860Z,11.63
2018-01-29T00:43:08.293Z,12.40
2018-01-29T00:45:36.007Z,12.83
2018-01-29T00:48:04.586Z,12.03
2018-01-29T00:50:33.124Z,12.27
2018-01-29T00:53:00.818Z,11.73
2018-01-29T00:55:29.324Z,12.43
2018-01-29T00:57:57.016Z,12.03
2018-01-29T01:00:24.702Z,12.00
2018-01-29T01:02:52.415Z,12.73
2018-01-29T01:05:20.080Z,12.23
2018-01-29T01:07:47.840Z,13.00
2018-01-29T01:10:15.517Z,12.13
2018-01-29T01:12:43.220Z,11.83
2018-01-29T01:15:10.898Z,12.57
2018-01-29T01:17:39.343Z,11.33
2018-01-29T01:20:07.015Z,11.23
2018-01-29T01:22:34.705Z,11.43
2018-01-29T01:25:03.182Z,9.93
2018-01-29T01:27:31.619Z,10.47
2018-01-29T01:29:59.324Z,9.57
2018-01-29T01:32:27.755Z,10.33
2018-01-29T01:34:55.446Z,9.80
2018-01-29T01:37:23.907Z,9.90
2018-01-29T01:39:51.675Z,10.83
2018-01-29T01:42:19.346Z,9.93
2018-01-29T01:44:47.027Z,10.47
2018-01-29T01:47:15.460Z,10.90
2018-01-29T01:49:43.197Z,10.63
2018-01-29T01:52:10.943Z,11.40
2018-01-29T01:54:38.658Z,10.73
2018-01-29T01:57:06.425Z,10.90
2018-01-29T01:59:34.084Z,11.60
2018-01-29T02:02:01.784Z,11.80
2018-01-29T02:04:29.478Z,10.70
2018-01-29T02:06:57.156Z,11.17
2018-01-29T02:09:24.854Z,11.70
2018-01-29T02:11:53.327Z,10.97
2018-01-29T02:14:21.780Z,10.10
2018-01-29T02:16:49.490Z,11.33
2018-01-29T02:19:17.182Z,10.60
2018-01-29T02:21:44.924Z,10.03
2018-01-29T02:24:12.598Z,10.87
2018-01-29T02:26:40.266Z,10.50
2018-01-29T02:29:07.936Z,11.03
2018-01-29T02:31:35.605Z,11.33
2018-01-29T02:34:03.318Z,10.60
2018-01-29T02:36:31.056Z,11.70
2018-01-29T02:38:59.516Z,10.63
2018-01-29T02:41:27.272Z,11.17
2018-01-29T02:43:54.953Z,9.07
2018-01-29T02:46:22.716Z,9.77
2018-01-29T02:48:50.480Z,10.10
2018-01-29T02:51:18.979Z,9.40
2018-01-29T02:53:47.471Z,10.03
2018-01-29T02:56:15.196Z,9.70
2018-01-29T02:58:42.932Z,9.47
2018-01-29T03:01:10.610Z,9.00
2018-01-29T03:03:38.310Z,9.10
2018-01-29T03:06:06.787Z,8.23
2018-01-29T03:08:35.219Z,8.20
2018-01-29T03:11:02.911Z,8.37
2018-01-29T03:13:30.659Z,8.50
2018-01-29T03:15:58.351Z,8.13
2018-01-29T03:18:26.785Z,7.90
2018-01-29T03:20:54.481Z,6.37
2018-01-29T03:23:22.997Z,7.33
2018-01-29T03:25:50.665Z,7.60
2018-01-29T03:28:18.333Z,7.17
2018-01-29T03:30:46.035Z,8.60
2018-01-29T03:33:13.749Z,8.50
2018-01-29T03:35:41.422Z,8.50
2018-01-29T03:38:09.090Z,7.67
2018-01-29T03:40:36.840Z,8.10
2018-01-29T03:43:04.515Z,8.00
2018-01-29T03:45:32.264Z,8.07
2018-01-29T03:47:59.962Z,7.67
2018-01-29T03:50:27.679Z,6.73
2018-01-29T03:52:55.393Z,8.17
2018-01-29T03:55:23.828Z,8.10
2018-01-29T03:57:51.913Z,8.83
2018-01-29T04:00:19.610Z,8.10
2018-01-29T04:02:48.117Z,7.50
2018-01-29T04:05:15.797Z,8.27
2018-01-29T04:07:43.465Z,8.20
2018-01-29T04:10:11.142Z,7.90
2018-01-29T04:12:38.806Z,8.67
2018-01-29T04:15:06.557Z,8.00
2018-01-29T04:17:35.040Z,8.43
2018-01-29T04:20:02.758Z,8.97
2018-01-29T04:22:30.429Z,9.03
2018-01-29T04:24:58.114Z,8.47
2018-01-29T04:27:25.807Z,8.97
2018-01-29T04:29:53.478Z,8.77
2018-01-29T04:32:21.898Z,9.10
2018-01-29T04:34:49.564Z,9.60
2018-01-29T04:37:17.231Z,9.77
2018-01-29T04:39:44.929Z,8.70
2018-01-29T04:42:12.591Z,8.97
2018-01-29T04:44:40.303Z,8.83
2018-01-29T04:47:08.047Z,9.10
2018-01-29T04:49:35.736Z,8.63
2018-01-29T04:52:03.417Z,8.97
2018-01-29T04:54:31.831Z,8.90
2018-01-29T04:57:00.287Z,8.67
2018-01-29T04:59:27.975Z,9.30
2018-01-29T05:01:56.487Z,8.27
2018-01-29T05:04:24.217Z,8.20
2018-01-29T05:06:52.722Z,8.73
2018-01-29T05:09:20.433Z,8.67
2018-01-29T05:11:48.119Z,8.70
2018-01-29T05:14:16.572Z,8.00
2018-01-29T05:16:44.251Z,8.00
2018-01-29T05:19:12.730Z,8.30
2018-01-29T05:21:41.162Z,8.37
2018-01-29T05:24:08.832Z,9.10
2018-01-29T05:26:36.497Z,7.73
2018-01-29T05:29:04.178Z,7.97
2018-01-29T05:31:31.851Z,8.07
2018-01-29T05:34:00.464Z,7.63
2018-01-29T05:36:32.783Z,7.60
2018-01-29T05:39:00.525Z,8.03
2018-01-29T05:41:28.259Z,7.17
2018-01-29T05:43:55.990Z,7.90
2018-01-29T05:46:24.433Z,9.50
2018-01-29T05:48:52.180Z,9.13
2018-01-29T05:51:19.891Z,8.87
2018-01-29T05:53:48.393Z,8.20
2018-01-29T05:56:16.088Z,8.13
2018-01-29T05:58:43.851Z,8.93
2018-01-29T06:01:11.611Z,9.13
2018-01-29T06:03:39.296Z,8.97
2018-01-29T06:06:06.986Z,8.10
2018-01-29T06:08:35.498Z,8.87
2018-01-29T06:11:03.194Z,8.63
2018-01-29T06:13:30.882Z,7.33
2018-01-29T06:15:59.342Z,7.83
2018-01-29T06:18:28.566Z,8.50
2018-01-29T06:20:56.991Z,6.70
2018-01-29T06:23:25.426Z,8.07
2018-01-29T06:25:53.841Z,7.33
2018-01-29T06:28:21.548Z,8.03
2018-01-29T06:30:49.224Z,7.20
2018-01-29T06:33:17.657Z,8.20
2018-01-29T06:35:45.309Z,7.93
2018-01-29T06:38:12.998Z,6.90
2018-01-29T06:40:40.696Z,7.83
2018-01-29T06:43:08.406Z,7.93
2018-01-29T06:45:36.083Z,8.33
2018-01-29T06:48:03.815Z,7.83
2018-01-29T06:50:32.253Z,6.90
2018-01-29T06:53:00.736Z,8.03
2018-01-29T06:55:29.247Z,7.30
2018-01-29T06:57:56.982Z,8.23
2018-01-29T07:00:25.430Z,7.33
2018-01-29T07:02:53.152Z,8.17
2018-01-29T07:05:20.915Z,8.60
2018-01-29T07:07:48.594Z,8.27
2018-01-29T07:10:17.063Z,10.43
2018-01-29T07:12:44.754Z,8.23
2018-01-29T07:15:12.423Z,8.13
2018-01-29T07:17:40.095Z,8.60
2018-01-29T07:20:08.542Z,8.47
2018-01-29T07:22:36.223Z,8.87
2018-01-29T07:25:03.894Z,7.93
2018-01-29T07:27:32.353Z,8.63
2018-01-29T07:30:00.117Z,8.03
2018-01-29T07:32:28.578Z,7.40
2018-01-29T07:34:56.262Z,7.67
2018-01-29T07:37:23.920Z,6.47
2018-01-29T07:39:51.608Z,6.83
2018-01-29T07:42:20.052Z,6.60
2018-01-29T07:44:47.801Z,6.77
2018-01-29T07:47:15.538Z,7.40
2018-01-29T07:49:43.217Z,8.70
2018-01-29T07:52:10.884Z,8.00
2018-01-29T07:54:39.468Z,8.23
2018-01-29T07:57:07.144Z,9.70
2018-01-29T07:59:34.917Z,9.80
2018-01-29T08:02:02.588Z,10.53
2018-01-29T08:04:30.256Z,9.00
2018-01-29T08:06:57.936Z,8.57
2018-01-29T08:09:25.619Z,7.97
2018-01-29T08:11:53.367Z,8.47
2018-01-29T08:14:21.829Z,8.33
2018-01-29T08:16:49.513Z,8.60
2018-01-29T08:19:17.185Z,8.27
2018-01-29T08:21:44.866Z,8.10
2018-01-29T08:24:12.584Z,9.10
2018-01-29T08:26:41.025Z,9.00
2018-01-29T08:29:08.756Z,10.20
2018-01-29T08:31:36.467Z,9.30
2018-01-29T08:34:04.122Z,8.83
2018-01-29T08:36:31.796Z,10.30
2018-01-29T08:39:00.372Z,10.30
2018-01-29T08:41:28.031Z,8.80
2018-01-29T08:43:55.715Z,10.13
2018-01-29T08:46:23.434Z,9.43
2018-01-29T08:48:51.879Z,9.67
2018-01-29T08:51:19.560Z,10.77
2018-01-29T08:53:47.995Z,9.63
2018-01-29T08:56:15.685Z,10.93
2018-01-29T08:58:43.377Z,10.40
2018-01-29T09:01:11.086Z,11.00
2018-01-29T09:03:38.791Z,9.83
2018-01-29T09:06:06.464Z,10.80
2018-01-29T09:08:34.196Z,10.80
2018-01-29T09:11:01.876Z,10.00
2018-01-29T09:13:29.579Z,10.07
2018-01-29T09:15:57.364Z,11.30
2018-01-29T09:18:25.032Z,10.07
2018-01-29T09:20:52.735Z,11.40
2018-01-29T09:23:21.261Z,12.83
2018-01-29T09:25:48.940Z,11.60
2018-01-29T09:28:16.688Z,12.60
2018-01-29T09:30:45.224Z,11.40
2018-01-29T09:33:13.687Z,10.93
2018-01-29T09:35:41.394Z,11.83
2018-01-29T09:38:09.098Z,12.00
2018-01-29T09:40:36.780Z,12.13
2018-01-29T09:43:04.471Z,12.60
2018-01-29T09:45:32.227Z,12.83
2018-01-29T09:48:00.655Z,13.07
2018-01-29T09:50:28.363Z,14.77
2018-01-29T09:52:56.896Z,12.73
2018-01-29T09:55:24.576Z,13.43
2018-01-29T09:57:52.290Z,13.30
2018-01-29T10:00:20.035Z,12.13
2018-01-29T10:02:48.483Z,13.63
2018-01-29T10:05:16.190Z,12.90
2018-01-29T10:07:43.962Z,13.03
2018-01-29T10:10:11.696Z,12.70
2018-01-29T10:12:40.149Z,12.77
2018-01-29T10:15:08.366Z,11.97
2018-01-29T10:17:36.029Z,13.13
2018-01-29T10:20:03.707Z,12.80
2018-01-29T10:22:31.426Z,12.10
2018-01-29T10:24:59.847Z,11.43
2018-01-29T10:27:28.388Z,12.13
2018-01-29T10:29:56.826Z,11.57
2018-01-29T10:32:25.295Z,11.47
2018-01-29T10:34:52.943Z,11.13
2018-01-29T10:37:20.610Z,11.50
2018-01-29T10:39:48.296Z,12.00
2018-01-29T10:42:15.927Z,12.23
2018-01-29T10:44:43.594Z,13.47
2018-01-29T10:47:11.999Z,14.53
2018-01-29T10:49:39.648Z,13.73
2018-01-29T10:52:08.268Z,11.73
2018-01-29T10:54:35.939Z,11.37
2018-01-29T10:57:03.603Z,13.53
2018-01-29T10:59:31.277Z,12.73
2018-01-29T11:02:03.350Z,12.90
2018-01-29T11:04:31.002Z,14.37
2018-01-29T11:06:59.435Z,12.93
2018-01-29T11:09:27.078Z,12.47
2018-01-29T11:11:54.765Z,12.77
2018-01-29T11:14:22.429Z,11.27
2018-01-29T11:16:50.180Z,10.83
2018-01-29T11:19:17.831Z,9.87
2018-01-29T11:21:46.499Z,10.57
2018-01-29T11:24:14.151Z,11.27
2018-01-29T11:26:41.782Z,11.40
2018-01-29T11:29:10.207Z,11.03
2018-01-29T11:31:37.887Z,10.93
2018-01-29T11:34:05.531Z,10.77
2018-01-29T11:36:33.209Z,10.57
2018-01-29T11:39:01.032Z,10.70
2018-01-29T11:41:28.674Z,10.87
2018-01-29T11:43:57.070Z,10.43
2018-01-29T11:46:24.722Z,10.87
2018-01-29T11:48:52.438Z,10.93
2018-01-29T11:51:20.108Z,10.80
2018-01-29T11:53:47.767Z,11.17
2018-01-29T11:56:15.439Z,11.37
2018-01-29T11:58:43.892Z,10.67
2018-01-29T12:01:11.564Z,11.93
2018-01-29T12:03:39.212Z,10.10
2018-01-29T12:06:06.871Z,11.23
2018-01-29T12:08:34.519Z,11.47
2018-01-29T12:11:02.927Z,10.53
2018-01-29T12:13:30.559Z,10.80
2018-01-29T12:15:58.238Z,10.07
2018-01-29T12:18:25.905Z,10.67
2018-01-29T12:20:53.574Z,10.63
2018-01-29T12:23:21.234Z,10.00
2018-01-29T12:25:48.872Z,11.17
2018-01-29T12:28:16.520Z,11.20
2018-01-29T12:30:44.174Z,11.80
2018-01-29T12:33:11.843Z,12.93
2018-01-29T12:35:39.481Z,14.63
2018-01-29T12:38:07.150Z,13.57
2018-01-29T12:40:34.797Z,14.03
2018-01-29T12:43:02.507Z,14.17
2018-01-29T12:45:30.307Z,15.13
2018-01-29T12:47:57.950Z,13.80
2018-01-29T12:50:26.375Z,14.37
2018-01-29T12:52:54.015Z,14.73
2018-01-29T12:55:21.685Z,14.60
2018-01-29T12:57:49.342Z,15.20
2018-01-29T13:00:16.997Z,14.50
2018-01-29T13:02:44.657Z,14.27
2018-01-29T13:05:12.311Z,14.90
2018-01-29T13:07:39.947Z,14.60
2018-01-29T13:10:08.381Z,15.13
2018-01-29T13:12:36.050Z,15.90
2018-01-29T13:15:03.750Z,15.40
2018-01-29T13:17:31.399Z,14.87
2018-01-29T13:19:59.101Z,14.47
2018-01-29T13:22:27.525Z,14.30
2018-01-29T13:24:55.158Z,15.80
2018-01-29T13:27:22.818Z,14.60
2018-01-29T13:29:50.474Z,15.77
2018-01-29T13:32:18.109Z,15.37
2018-01-29T13:34:46.550Z,15.73
2018-01-29T13:37:14.196Z,15.93
2018-01-29T13:39:41.835Z,16.77
2018-01-29T13:42:09.554Z,13.53
2018-01-29T13:44:37.192Z,14.80
2018-01-29T13:47:04.881Z,14.13
2018-01-29T13:49:32.593Z,16.00
2018-01-29T13:52:00.239Z,16.40
2018-01-29T13:54:28.633Z,15.47
2018-01-29T13:56:56.309Z,17.40
2018-01-29T13:59:24.727Z,17.00
2018-01-29T14:01:52.363Z,16.20
2018-01-29T14:04:20.794Z,18.90
2018-01-29T14:06:48.431Z,18.83
2018-01-29T14:09:16.073Z,19.20
2018-01-29T14:11:43.706Z,19.27
2018-01-29T14:14:12.132Z,17.27
2018-01-29T14:16:39.805Z,19.30
2018-01-29T14:19:07.573Z,18.63
2018-01-29T14:21:35.297Z,16.93
2018-01-29T14:24:02.982Z,17.77
2018-01-29T14:26:30.810Z,18.20
2018-01-29T14:28:58.454Z,18.93
2018-01-29T14:31:26.188Z,16.97
2018-01-29T14:33:54.599Z,17.07
2018-01-29T14:36:22.233Z,17.70
2018-01-29T14:38:50.660Z,17.73
2018-01-29T14:41:18.435Z,17.07
2018-01-29T14:43:46.162Z,18.93
2018-01-29T14:46:13.862Z,17.67
2018-01-29T14:48:41.558Z,17.57
2018-01-29T14:51:10.006Z,15.30
2018-01-29T14:53:37.654Z,15.73
2018-01-29T14:56:05.305Z,16.13
2018-01-29T14:58:32.979Z,17.57
2018-01-29T15:01:00.652Z,17.23
2018-01-29T15:03:29.102Z,17.00
2018-01-29T15:05:57.222Z,17.30
2018-01-29T15:08:25.141Z,15.97
2018-01-29T15:10:52.838Z,15.70
2018-01-29T15:13:20.501Z,15.53
2018-01-29T15:15:48.177Z,15.70
2018-01-29T15:18:16.742Z,15.63
2018-01-29T15:20:44.400Z,15.80
2018-01-29T15:23:12.085Z,16.73
2018-01-29T15:25:40.530Z,15.97
2018-01-29T15:28:08.200Z,15.87
2018-01-29T15:30:35.878Z,15.33
2018-01-29T15:33:04.296Z,14.37
2018-01-29T15:35:31.958Z,15.13
2018-01-29T15:37:59.608Z,15.17
2018-01-29T15:40:27.242Z,14.50
2018-01-29T15:42:54.885Z,13.43
2018-01-29T15:45:22.538Z,11.70
2018-01-29T15:47:50.241Z,11.83
2018-01-29T15:50:17.901Z,11.60
2018-01-29T15:52:45.557Z,12.87
2018-01-29T15:55:13.282Z,13.10
2018-01-29T15:57:40.937Z,13.97
2018-01-29T16:00:08.567Z,11.90
2018-01-29T16:02:37.132Z,11.63
2018-01-29T16:05:04.779Z,12.27
2018-01-29T16:07:32.445Z,12.13
2018-01-29T16:10:00.108Z,11.70
2018-01-29T16:12:27.734Z,11.67
2018-01-29T16:14:55.409Z,11.13
2018-01-29T16:17:23.860Z,12.00
2018-01-29T16:19:51.539Z,11.13
2018-01-29T16:22:19.203Z,11.67
2018-01-29T16:24:46.846Z,15.00
2018-01-29T16:27:14.506Z,17.57
2018-01-29T16:29:42.137Z,16.90
2018-01-29T16:32:10.554Z,13.77
2018-01-29T16:34:38.203Z,13.60
2018-01-29T16:37:05.875Z,12.77
2018-01-29T16:39:34.302Z,10.50
2018-01-29T16:42:02.728Z,12.13
2018-01-29T16:44:30.417Z,12.33
2018-01-29T16:46:58.086Z,13.63
2018-01-29T16:49:25.782Z,14.27
2018-01-29T16:51:54.222Z,13.20
2018-01-29T16:54:21.894Z,12.90
2018-01-29T16:56:49.597Z,13.73
2018-01-29T16:59:17.259Z,13.10
2018-01-29T17:01:45.111Z,15.93
2018-01-29T17:04:12.767Z,11.30
2018-01-29T17:06:40.439Z,11.37
2018-01-29T17:09:08.123Z,12.80
2018-01-29T17:11:35.810Z,15.17
2018-01-29T17:14:03.500Z,15.63
2018-01-29T17:16:31.927Z,12.37
2018-01-29T17:18:59.588Z,14.53
2018-01-29T17:21:27.281Z,13.43
2018-01-29T17:23:54.975Z,13.67
2018-01-29T17:26:22.642Z,18.07
2018-01-29T17:28:50.284Z,14.27
2018-01-29T17:31:18.708Z,14.30
2018-01-29T17:33:46.382Z,16.60
2018-01-29T17:36:14.027Z,14.63
2018-01-29T17:38:41.717Z,15.47
2018-01-29T17:41:09.414Z,14.23
2018-01-29T17:43:37.214Z,13.80
2018-01-29T17:46:04.859Z,13.93
2018-01-29T17:48:32.530Z,14.87
2018-01-29T17:51:00.250Z,15.10
2018-01-29T17:53:28.745Z,13.50
2018-01-29T17:55:56.472Z,14.47
2018-01-29T17:58:24.183Z,14.63
2018-01-29T18:00:51.878Z,15.40
2018-01-29T18:03:19.522Z,16.07
2018-01-29T18:05:47.246Z,15.93
2018-01-29T18:08:15.667Z,15.13
2018-01-29T18:10:43.302Z,15.53
2018-01-29T18:13:10.964Z,15.27
2018-01-29T18:15:38.619Z,17.07
2018-01-29T18:18:06.330Z,17.80
2018-01-29T18:20:34.007Z,17.90
2018-01-29T18:23:01.685Z,18.13
2018-01-29T18:25:30.105Z,15.97
2018-01-29T18:27:57.789Z,16.03
2018-01-29T18:30:25.443Z,16.43
2018-01-29T18:32:53.933Z,18.33
2018-01-29T18:35:21.598Z,18.13
2018-01-29T18:37:49.333Z,16.90
2018-01-29T18:40:17.033Z,16.03
2018-01-29T18:42:45.470Z,15.03
2018-01-29T18:45:13.115Z,16.63
2018-01-29T18:47:40.892Z,14.77
2018-01-29T18:50:08.582Z,14.47
2018-01-29T18:52:36.256Z,14.80
2018-01-29T18:55:03.981Z,12.73
2018-01-29T18:57:31.649Z,13.17
2018-01-29T18:59:59.297Z,13.83
2018-01-29T19:02:26.982Z,15.37
2018-01-29T19:04:54.627Z,12.93
2018-01-29T19:07:22.301Z,13.63
2018-01-29T19:09:49.997Z,14.77
2018-01-29T19:12:18.405Z,15.90
2018-01-29T19:14:46.055Z,13.70
2018-01-29T19:17:13.750Z,20.27
2018-01-29T19:19:41.386Z,24.80
2018-01-29T19:22:09.060Z,18.40
2018-01-29T19:24:36.757Z,16.10
2018-01-29T19:27:04.394Z,17.63
2018-01-29T19:29:32.054Z,17.60
2018-01-29T19:31:59.719Z,13.60
2018-01-29T19:34:27.392Z,13.00
2018-01-29T19:36:55.053Z,13.60
2018-01-29T19:39:22.755Z,13.40
2018-01-29T19:41:50.416Z,12.20
2018-01-29T19:44:18.065Z,12.67
2018-01-29T19:46:46.510Z,12.87
2018-01-29T19:49:14.182Z,13.30
2018-01-29T19:51:41.841Z,11.57
2018-01-29T19:54:09.563Z,11.80
2018-01-29T19:56:37.209Z,13.10
2018-01-29T19:59:04.865Z,12.67
2018-01-29T20:01:32.567Z,14.30
2018-01-29T20:04:00.244Z,11.27
2018-01-29T20:06:27.909Z,13.63
2018-01-29T20:08:55.664Z,13.53
2018-01-29T20:11:23.337Z,11.57
2018-01-29T20:13:51.000Z,10.00
2018-01-29T20:16:18.658Z,12.03
2018-01-29T20:18:46.309Z,12.40
2018-01-29T20:21:13.971Z,12.07
2018-01-29T20:23:41.740Z,10.97
2018-01-29T20:26:09.404Z,12.83
2018-01-29T20:28:37.864Z,11.67
2018-01-29T20:31:05.514Z,11.43
2018-01-29T20:33:33.192Z,12.33
2018-01-29T20:36:00.861Z,11.80
2018-01-29T20:38:28.513Z,11.87
2018-01-29T20:40:56.194Z,12.27
2018-01-29T20:43:24.636Z,12.50
2018-01-29T20:45:53.117Z,12.47
2018-01-29T20:48:20.785Z,12.40
2018-01-29T20:50:48.471Z,12.20
2018-01-29T20:53:16.890Z,12.10
2018-01-29T20:55:44.578Z,11.37
2018-01-29T20:58:13.096Z,11.87
2018-01-29T21:00:40.799Z,11.77
2018-01-29T21:03:08.482Z,10.93
2018-01-29T21:05:36.232Z,12.67
2018-01-29T21:08:04.003Z,13.00
2018-01-29T21:10:31.661Z,13.07
2018-01-29T21:12:59.341Z,13.13
2018-01-29T21:15:27.024Z,12.57
2018-01-29T21:17:55.460Z,12.63
2018-01-29T21:20:23.904Z,13.40
2018-01-29T21:22:51.566Z,12.30
2018-01-29T21:25:19.243Z,11.53
2018-01-29T21:27:46.929Z,9.97
2018-01-29T21:30:14.607Z,10.80
2018-01-29T21:32:43.267Z,11.30
2018-01-29T21:35:10.934Z,10.63
2018-01-29T21:37:38.593Z,12.13
2018-01-29T21:40:06.285Z,12.57
2018-01-29T21:42:35.897Z,12.53
2018-01-29T21:45:05.104Z,13.60
2018-01-29T21:47:33.524Z,12.93
2018-01-29T21:50:01.255Z,13.73
2018-01-29T21:52:29.713Z,12.23
2018-01-29T21:54:58.156Z,12.73
2018-01-29T21:57:25.865Z,12.67
2018-01-29T21:59:54.272Z,12.13
2018-01-29T22:02:22.009Z,11.27
2018-01-29T22:04:50.446Z,11.83
2018-01-29T22:07:18.908Z,12.50
2018-01-29T22:09:46.563Z,11.27
2018-01-29T22:12:14.254Z,11.87
2018-01-29T22:14:41.926Z,10.73
2018-01-29T22:17:09.555Z,11.93
2018-01-29T22:19:37.203Z,11.73
2018-01-29T22:22:05.031Z,12.07
2018-01-29T22:24:32.687Z,12.30
2018-01-29T22:27:01.098Z,11.73
2018-01-29T22:29:28.766Z,11.67
2018-01-29T22:31:56.501Z,11.37
2018-01-29T22:34:24.163Z,12.17
2018-01-29T22:36:51.889Z,12.10
2018-01-29T22:39:19.618Z,12.00
2018-01-29T22:41:47.259Z,11.27
2018-01-29T22:44:14.948Z,12.77
2018-01-29T22:46:42.602Z,12.77
2018-01-29T22:49:10.329Z,13.47
2018-01-29T22:51:38.013Z,13.83
2018-01-29T22:54:05.660Z,13.33
2018-01-29T22:56:33.318Z,13.07
2018-01-29T22:59:00.997Z,12.97
2018-01-29T23:01:28.713Z,13.07
2018-01-29T23:03:57.128Z,14.20
2018-01-29T23:06:24.790Z,17.63
2018-01-29T23:08:52.674Z,13.10
2018-01-29T23:11:20.327Z,15.43
2018-01-29T23:13:47.967Z,15.20
2018-01-29T23:16:15.615Z,14.60
2018-01-29T23:18:44.014Z,12.30
2018-01-29T23:21:11.669Z,12.50
2018-01-29T23:23:39.435Z,12.63
2018-01-29T23:26:07.098Z,11.83
2018-01-29T23:28:34.745Z,12.80
2018-01-29T23:31:02.421Z,13.33
2018-01-29T23:33:30.111Z,13.83
2018-01-29T23:35:57.754Z,12.90
2018-01-29T23:38:25.454Z,13.30
2018-01-29T23:40:53.100Z,11.07
2018-01-29T23:43:20.826Z,11.03
2018-01-29T23:45:48.467Z,11.57
2018-01-29T23:48:16.141Z,10.83
2018-01-29T23:50:43.810Z,10.20
2018-01-29T23:53:11.471Z,11.73
2018-01-29T23:55:39.133Z,9.40
2018-01-29T23:58:06.807Z,11.37
